sensor_id;sensor_type;location;lat;lon;timestamp;P1;durP1;ratioP1;P2;durP2;ratioP2
24259;SDS011;12384;48.112;18.418;2022-11-11T00:02:45;29.47;;;25.77;;
24259;SDS011;12384;48.112;18.418;2022-11-11T00:05:33;30.53;;;27.20;;
24259;SDS011;12384;48.112;18.418;2022-11-11T00:08:20;28.60;;;25.60;;
24259;SDS011;12384;48.112;18.418;2022-11-11T00:11:07;29.83;;;26.67;;
24259;SDS011;12384;48.112;18.418;2022-11-11T00:13:56;29.10;;;25.97;;
24259;SDS011;12384;48.112;18.418;2022-11-11T00:16:43;26.83;;;24.07;;
24259;SDS011;12384;48.112;18.418;2022-11-11T00:19:47;30.00;;;26.67;;
24259;SDS011;12384;48.112;18.418;2022-11-11T00:22:52;26.87;;;24.00;;
24259;SDS011;12384;48.112;18.418;2022-11-11T00:25:56;28.23;;;25.23;;
24259;SDS011;12384;48.112;18.418;2022-11-11T00:29:04;27.77;;;24.87;;
24259;SDS011;12384;48.112;18.418;2022-11-11T00:31:52;33.03;;;28.50;;
24259;SDS011;12384;48.112;18.418;2022-11-11T00:34:57;30.47;;;26.83;;
24259;SDS011;12384;48.112;18.418;2022-11-11T00:38:05;30.60;;;26.90;;
24259;SDS011;12384;48.112;18.418;2022-11-11T00:40:53;33.60;;;27.67;;
24259;SDS011;12384;48.112;18.418;2022-11-11T00:43:40;30.93;;;26.00;;
24259;SDS011;12384;48.112;18.418;2022-11-11T00:46:27;32.03;;;26.73;;
24259;SDS011;12384;48.112;18.418;2022-11-11T00:49:33;42.07;;;25.87;;
24259;SDS011;12384;48.112;18.418;2022-11-11T00:52:37;52.47;;;27.00;;
24259;SDS011;12384;48.112;18.418;2022-11-11T00:55:24;34.83;;;26.13;;
24259;SDS011;12384;48.112;18.418;2022-11-11T00:58:11;50.50;;;24.80;;
24259;SDS011;12384;48.112;18.418;2022-11-11T01:01:01;26.80;;;23.97;;
24259;SDS011;12384;48.112;18.418;2022-11-11T01:03:48;28.90;;;23.53;;
24259;SDS011;12384;48.112;18.418;2022-11-11T01:06:36;28.37;;;24.30;;
24259;SDS011;12384;48.112;18.418;2022-11-11T01:09:23;25.93;;;23.43;;
24259;SDS011;12384;48.112;18.418;2022-11-11T01:12:10;25.47;;;23.07;;
24259;SDS011;12384;48.112;18.418;2022-11-11T01:14:57;26.77;;;24.00;;
24259;SDS011;12384;48.112;18.418;2022-11-11T01:17:44;31.03;;;25.63;;
24259;SDS011;12384;48.112;18.418;2022-11-11T01:20:31;28.73;;;25.67;;
24259;SDS011;12384;48.112;18.418;2022-11-11T01:23:19;27.37;;;24.57;;
24259;SDS011;12384;48.112;18.418;2022-11-11T01:26:06;27.13;;;24.40;;
24259;SDS011;12384;48.112;18.418;2022-11-11T01:28:56;26.77;;;24.07;;
24259;SDS011;12384;48.112;18.418;2022-11-11T01:31:44;25.63;;;23.03;;
24259;SDS011;12384;48.112;18.418;2022-11-11T01:34:30;26.73;;;23.87;;
24259;SDS011;12384;48.112;18.418;2022-11-11T01:37:17;27.83;;;24.83;;
24259;SDS011;12384;48.112;18.418;2022-11-11T01:40:07;27.60;;;24.43;;
24259;SDS011;12384;48.112;18.418;2022-11-11T01:43:13;28.40;;;25.20;;
24259;SDS011;12384;48.112;18.418;2022-11-11T01:46:04;27.03;;;24.17;;
24259;SDS011;12384;48.112;18.418;2022-11-11T01:48:51;28.50;;;25.23;;
24259;SDS011;12384;48.112;18.418;2022-11-11T01:51:59;28.50;;;25.50;;
24259;SDS011;12384;48.112;18.418;2022-11-11T01:54:51;27.17;;;24.47;;
24259;SDS011;12384;48.112;18.418;2022-11-11T01:57:42;28.97;;;25.07;;
24259;SDS011;12384;48.112;18.418;2022-11-11T02:00:34;28.90;;;25.50;;
24259;SDS011;12384;48.112;18.418;2022-11-11T02:03:21;27.53;;;24.37;;
24259;SDS011;12384;48.112;18.418;2022-11-11T02:06:11;27.93;;;24.90;;
24259;SDS011;12384;48.112;18.418;2022-11-11T02:08:57;32.03;;;26.47;;
24259;SDS011;12384;48.112;18.418;2022-11-11T02:11:46;29.67;;;26.53;;
24259;SDS011;12384;48.112;18.418;2022-11-11T02:14:53;29.23;;;25.83;;
24259;SDS011;12384;48.112;18.418;2022-11-11T02:17:42;31.93;;;26.70;;
24259;SDS011;12384;48.112;18.418;2022-11-11T02:20:31;31.67;;;26.60;;
24259;SDS011;12384;48.112;18.418;2022-11-11T02:23:24;26.83;;;24.03;;
24259;SDS011;12384;48.112;18.418;2022-11-11T02:26:18;29.03;;;25.70;;
24259;SDS011;12384;48.112;18.418;2022-11-11T02:29:08;29.33;;;25.63;;
24259;SDS011;12384;48.112;18.418;2022-11-11T02:31:58;28.00;;;24.63;;
24259;SDS011;12384;48.112;18.418;2022-11-11T02:34:46;26.33;;;23.53;;
24259;SDS011;12384;48.112;18.418;2022-11-11T02:37:33;27.17;;;24.20;;
24259;SDS011;12384;48.112;18.418;2022-11-11T02:40:20;27.67;;;24.67;;
24259;SDS011;12384;48.112;18.418;2022-11-11T02:43:12;25.07;;;22.57;;
24259;SDS011;12384;48.112;18.418;2022-11-11T02:45:59;28.00;;;25.03;;
24259;SDS011;12384;48.112;18.418;2022-11-11T02:48:48;28.37;;;24.97;;
24259;SDS011;12384;48.112;18.418;2022-11-11T02:51:34;25.80;;;23.20;;
24259;SDS011;12384;48.112;18.418;2022-11-11T02:54:21;26.87;;;23.97;;
24259;SDS011;12384;48.112;18.418;2022-11-11T02:57:08;26.23;;;23.53;;
24259;SDS011;12384;48.112;18.418;2022-11-11T02:59:58;29.57;;;26.47;;
24259;SDS011;12384;48.112;18.418;2022-11-11T03:02:45;32.63;;;25.67;;
24259;SDS011;12384;48.112;18.418;2022-11-11T03:05:32;29.90;;;25.63;;
24259;SDS011;12384;48.112;18.418;2022-11-11T03:08:19;27.20;;;23.63;;
24259;SDS011;12384;48.112;18.418;2022-11-11T03:11:06;27.00;;;23.67;;
24259;SDS011;12384;48.112;18.418;2022-11-11T03:13:54;29.10;;;25.97;;
24259;SDS011;12384;48.112;18.418;2022-11-11T03:16:43;26.77;;;24.07;;
24259;SDS011;12384;48.112;18.418;2022-11-11T03:19:47;26.87;;;23.70;;
24259;SDS011;12384;48.112;18.418;2022-11-11T03:22:34;27.13;;;23.80;;
24259;SDS011;12384;48.112;18.418;2022-11-11T03:25:39;29.47;;;26.07;;
24259;SDS011;12384;48.112;18.418;2022-11-11T03:28:28;26.47;;;23.67;;
24259;SDS011;12384;48.112;18.418;2022-11-11T03:31:14;28.87;;;25.40;;
24259;SDS011;12384;48.112;18.418;2022-11-11T03:34:03;26.60;;;23.50;;
24259;SDS011;12384;48.112;18.418;2022-11-11T03:37:03;24.90;;;22.20;;
24259;SDS011;12384;48.112;18.418;2022-11-11T03:40:09;24.60;;;22.10;;
24259;SDS011;12384;48.112;18.418;2022-11-11T03:42:56;23.80;;;21.23;;
24259;SDS011;12384;48.112;18.418;2022-11-11T03:45:49;23.87;;;21.47;;
24259;SDS011;12384;48.112;18.418;2022-11-11T03:48:37;25.63;;;22.37;;
24259;SDS011;12384;48.112;18.418;2022-11-11T03:51:25;22.80;;;20.70;;
24259;SDS011;12384;48.112;18.418;2022-11-11T03:54:12;23.90;;;21.53;;
24259;SDS011;12384;48.112;18.418;2022-11-11T03:56:59;25.33;;;22.47;;
24259;SDS011;12384;48.112;18.418;2022-11-11T04:00:03;24.53;;;22.03;;
24259;SDS011;12384;48.112;18.418;2022-11-11T04:03:01;25.53;;;22.90;;
24259;SDS011;12384;48.112;18.418;2022-11-11T04:06:08;26.37;;;23.60;;
24259;SDS011;12384;48.112;18.418;2022-11-11T04:09:13;25.43;;;23.03;;
24259;SDS011;12384;48.112;18.418;2022-11-11T04:12:18;24.50;;;22.07;;
24259;SDS011;12384;48.112;18.418;2022-11-11T04:15:05;25.37;;;22.90;;
24259;SDS011;12384;48.112;18.418;2022-11-11T04:18:10;24.83;;;22.33;;
24259;SDS011;12384;48.112;18.418;2022-11-11T04:20:57;24.30;;;22.00;;
24259;SDS011;12384;48.112;18.418;2022-11-11T04:24:01;23.23;;;21.03;;
24259;SDS011;12384;48.112;18.418;2022-11-11T04:27:10;24.53;;;22.13;;
24259;SDS011;12384;48.112;18.418;2022-11-11T04:29:58;23.60;;;21.30;;
24259;SDS011;12384;48.112;18.418;2022-11-11T04:32:44;24.13;;;21.63;;
24259;SDS011;12384;48.112;18.418;2022-11-11T04:35:31;23.20;;;21.00;;
24259;SDS011;12384;48.112;18.418;2022-11-11T04:38:18;23.10;;;20.90;;
24259;SDS011;12384;48.112;18.418;2022-11-11T04:41:22;22.50;;;20.50;;
24259;SDS011;12384;48.112;18.418;2022-11-11T04:44:31;23.93;;;21.63;;
24259;SDS011;12384;48.112;18.418;2022-11-11T04:47:34;22.57;;;20.47;;
24259;SDS011;12384;48.112;18.418;2022-11-11T04:50:22;22.83;;;20.73;;
24259;SDS011;12384;48.112;18.418;2022-11-11T04:53:10;21.50;;;19.70;;
24259;SDS011;12384;48.112;18.418;2022-11-11T04:55:58;31.03;;;20.20;;
24259;SDS011;12384;48.112;18.418;2022-11-11T04:59:01;22.23;;;19.93;;
24259;SDS011;12384;48.112;18.418;2022-11-11T05:02:06;24.10;;;20.57;;
24259;SDS011;12384;48.112;18.418;2022-11-11T05:05:10;21.80;;;20.00;;
24259;SDS011;12384;48.112;18.418;2022-11-11T05:07:57;26.43;;;21.40;;
24259;SDS011;12384;48.112;18.418;2022-11-11T05:11:01;22.03;;;20.20;;
24259;SDS011;12384;48.112;18.418;2022-11-11T05:13:48;20.97;;;19.30;;
24259;SDS011;12384;48.112;18.418;2022-11-11T05:16:53;24.53;;;22.30;;
24259;SDS011;12384;48.112;18.418;2022-11-11T05:20:00;22.00;;;20.23;;
24259;SDS011;12384;48.112;18.418;2022-11-11T05:23:04;22.30;;;20.47;;
24259;SDS011;12384;48.112;18.418;2022-11-11T05:25:51;21.37;;;19.60;;
24259;SDS011;12384;48.112;18.418;2022-11-11T05:28:37;26.00;;;23.50;;
24259;SDS011;12384;48.112;18.418;2022-11-11T05:31:24;22.50;;;20.70;;
24259;SDS011;12384;48.112;18.418;2022-11-11T05:34:11;22.43;;;20.57;;
24259;SDS011;12384;48.112;18.418;2022-11-11T05:36:59;21.63;;;19.80;;
24259;SDS011;12384;48.112;18.418;2022-11-11T05:39:46;21.63;;;19.73;;
24259;SDS011;12384;48.112;18.418;2022-11-11T05:42:33;21.63;;;19.83;;
24259;SDS011;12384;48.112;18.418;2022-11-11T05:45:26;21.60;;;19.90;;
24259;SDS011;12384;48.112;18.418;2022-11-11T05:48:13;23.70;;;21.60;;
24259;SDS011;12384;48.112;18.418;2022-11-11T05:51:00;21.53;;;19.73;;
24259;SDS011;12384;48.112;18.418;2022-11-11T05:53:48;21.90;;;20.00;;
24259;SDS011;12384;48.112;18.418;2022-11-11T05:56:35;24.67;;;22.30;;
24259;SDS011;12384;48.112;18.418;2022-11-11T05:59:21;22.43;;;20.53;;
24259;SDS011;12384;48.112;18.418;2022-11-11T06:02:08;20.77;;;18.97;;
24259;SDS011;12384;48.112;18.418;2022-11-11T06:04:55;22.17;;;20.37;;
24259;SDS011;12384;48.112;18.418;2022-11-11T06:07:42;22.53;;;20.57;;
24259;SDS011;12384;48.112;18.418;2022-11-11T06:10:30;25.33;;;20.57;;
24259;SDS011;12384;48.112;18.418;2022-11-11T06:13:17;22.93;;;21.00;;
24259;SDS011;12384;48.112;18.418;2022-11-11T06:16:03;21.93;;;20.03;;
24259;SDS011;12384;48.112;18.418;2022-11-11T06:18:51;20.97;;;19.33;;
24259;SDS011;12384;48.112;18.418;2022-11-11T06:21:37;21.47;;;19.37;;
24259;SDS011;12384;48.112;18.418;2022-11-11T06:24:42;20.93;;;19.23;;
24259;SDS011;12384;48.112;18.418;2022-11-11T06:27:50;20.93;;;19.23;;
24259;SDS011;12384;48.112;18.418;2022-11-11T06:30:37;19.90;;;18.17;;
24259;SDS011;12384;48.112;18.418;2022-11-11T06:33:35;22.40;;;18.73;;
24259;SDS011;12384;48.112;18.418;2022-11-11T06:36:22;22.13;;;19.97;;
24259;SDS011;12384;48.112;18.418;2022-11-11T06:39:09;20.77;;;18.83;;
24259;SDS011;12384;48.112;18.418;2022-11-11T06:41:55;26.77;;;18.63;;
24259;SDS011;12384;48.112;18.418;2022-11-11T06:44:44;38.30;;;19.30;;
24259;SDS011;12384;48.112;18.418;2022-11-11T06:47:31;33.20;;;18.23;;
24259;SDS011;12384;48.112;18.418;2022-11-11T06:50:17;21.23;;;16.80;;
24259;SDS011;12384;48.112;18.418;2022-11-11T06:53:05;39.57;;;17.83;;
24259;SDS011;12384;48.112;18.418;2022-11-11T06:55:53;22.50;;;16.80;;
24259;SDS011;12384;48.112;18.418;2022-11-11T06:58:39;31.17;;;17.03;;
24259;SDS011;12384;48.112;18.418;2022-11-11T07:01:27;39.73;;;17.47;;
24259;SDS011;12384;48.112;18.418;2022-11-11T07:04:14;27.33;;;17.57;;
24259;SDS011;12384;48.112;18.418;2022-11-11T07:07:01;28.73;;;15.97;;
24259;SDS011;12384;48.112;18.418;2022-11-11T07:09:48;53.43;;;17.43;;
24259;SDS011;12384;48.112;18.418;2022-11-11T07:12:35;16.87;;;15.33;;
24259;SDS011;12384;48.112;18.418;2022-11-11T07:15:21;51.10;;;16.20;;
24259;SDS011;12384;48.112;18.418;2022-11-11T07:18:10;16.07;;;14.40;;
24259;SDS011;12384;48.112;18.418;2022-11-11T07:20:57;15.57;;;13.93;;
24259;SDS011;12384;48.112;18.418;2022-11-11T07:23:43;13.57;;;12.67;;
24259;SDS011;12384;48.112;18.418;2022-11-11T07:26:30;15.00;;;13.90;;
24259;SDS011;12384;48.112;18.418;2022-11-11T07:29:17;14.97;;;13.87;;
24259;SDS011;12384;48.112;18.418;2022-11-11T07:32:04;14.50;;;13.40;;
24259;SDS011;12384;48.112;18.418;2022-11-11T07:34:52;14.03;;;12.87;;
24259;SDS011;12384;48.112;18.418;2022-11-11T07:37:39;15.27;;;12.63;;
24259;SDS011;12384;48.112;18.418;2022-11-11T07:40:27;13.40;;;12.30;;
24259;SDS011;12384;48.112;18.418;2022-11-11T07:43:14;13.47;;;12.47;;
24259;SDS011;12384;48.112;18.418;2022-11-11T07:46:00;11.93;;;11.03;;
24259;SDS011;12384;48.112;18.418;2022-11-11T07:48:47;12.53;;;11.53;;
24259;SDS011;12384;48.112;18.418;2022-11-11T07:51:35;11.83;;;10.73;;
24259;SDS011;12384;48.112;18.418;2022-11-11T07:54:22;11.60;;;10.73;;
24259;SDS011;12384;48.112;18.418;2022-11-11T07:57:09;12.37;;;11.27;;
24259;SDS011;12384;48.112;18.418;2022-11-11T07:59:55;13.40;;;12.30;;
24259;SDS011;12384;48.112;18.418;2022-11-11T08:02:45;13.43;;;12.33;;
24259;SDS011;12384;48.112;18.418;2022-11-11T08:05:32;13.17;;;12.17;;
24259;SDS011;12384;48.112;18.418;2022-11-11T08:08:20;13.30;;;12.20;;
24259;SDS011;12384;48.112;18.418;2022-11-11T08:11:13;13.73;;;12.63;;
24259;SDS011;12384;48.112;18.418;2022-11-11T08:14:00;14.40;;;13.20;;
24259;SDS011;12384;48.112;18.418;2022-11-11T08:16:46;14.50;;;13.30;;
24259;SDS011;12384;48.112;18.418;2022-11-11T08:19:33;13.93;;;12.73;;
24259;SDS011;12384;48.112;18.418;2022-11-11T08:22:19;14.40;;;13.30;;
24259;SDS011;12384;48.112;18.418;2022-11-11T08:25:08;13.33;;;12.33;;
24259;SDS011;12384;48.112;18.418;2022-11-11T08:27:59;13.67;;;12.57;;
24259;SDS011;12384;48.112;18.418;2022-11-11T08:30:47;14.60;;;13.50;;
24259;SDS011;12384;48.112;18.418;2022-11-11T08:33:33;13.43;;;12.53;;
24259;SDS011;12384;48.112;18.418;2022-11-11T08:36:21;15.23;;;14.10;;
24259;SDS011;12384;48.112;18.418;2022-11-11T08:39:09;13.80;;;12.90;;
24259;SDS011;12384;48.112;18.418;2022-11-11T08:41:58;15.63;;;14.47;;
24259;SDS011;12384;48.112;18.418;2022-11-11T08:44:45;15.77;;;14.67;;
24259;SDS011;12384;48.112;18.418;2022-11-11T08:47:31;16.43;;;15.33;;
24259;SDS011;12384;48.112;18.418;2022-11-11T08:50:19;18.43;;;17.13;;
24259;SDS011;12384;48.112;18.418;2022-11-11T08:53:06;18.73;;;17.13;;
24259;SDS011;12384;48.112;18.418;2022-11-11T08:55:53;18.67;;;17.27;;
24259;SDS011;12384;48.112;18.418;2022-11-11T08:58:41;21.03;;;19.20;;
24259;SDS011;12384;48.112;18.418;2022-11-11T09:01:28;20.87;;;19.20;;
24259;SDS011;12384;48.112;18.418;2022-11-11T09:04:15;21.13;;;19.37;;
24259;SDS011;12384;48.112;18.418;2022-11-11T09:07:22;21.27;;;19.57;;
24259;SDS011;12384;48.112;18.418;2022-11-11T09:10:09;22.13;;;20.43;;
24259;SDS011;12384;48.112;18.418;2022-11-11T09:12:56;23.37;;;21.47;;
24259;SDS011;12384;48.112;18.418;2022-11-11T09:15:45;23.40;;;21.60;;
24259;SDS011;12384;48.112;18.418;2022-11-11T09:18:31;20.83;;;19.07;;
24259;SDS011;12384;48.112;18.418;2022-11-11T09:21:18;20.83;;;19.23;;
24259;SDS011;12384;48.112;18.418;2022-11-11T09:24:05;18.93;;;17.53;;
24259;SDS011;12384;48.112;18.418;2022-11-11T09:26:52;19.47;;;18.07;;
24259;SDS011;12384;48.112;18.418;2022-11-11T09:29:39;18.77;;;17.37;;
24259;SDS011;12384;48.112;18.418;2022-11-11T09:32:27;17.93;;;16.63;;
24259;SDS011;12384;48.112;18.418;2022-11-11T09:35:14;19.50;;;18.10;;
24259;SDS011;12384;48.112;18.418;2022-11-11T09:38:01;20.97;;;19.37;;
24259;SDS011;12384;48.112;18.418;2022-11-11T09:40:53;21.60;;;20.00;;
24259;SDS011;12384;48.112;18.418;2022-11-11T09:43:54;21.37;;;19.53;;
24259;SDS011;12384;48.112;18.418;2022-11-11T09:46:44;20.57;;;18.90;;
24259;SDS011;12384;48.112;18.418;2022-11-11T09:49:43;18.47;;;17.00;;
24259;SDS011;12384;48.112;18.418;2022-11-11T09:52:39;17.10;;;15.73;;
24259;SDS011;12384;48.112;18.418;2022-11-11T09:55:31;16.57;;;15.37;;
24259;SDS011;12384;48.112;18.418;2022-11-11T09:58:23;15.83;;;14.70;;
24259;SDS011;12384;48.112;18.418;2022-11-11T10:01:15;16.73;;;15.50;;
24259;SDS011;12384;48.112;18.418;2022-11-11T10:04:07;16.53;;;15.33;;
24259;SDS011;12384;48.112;18.418;2022-11-11T10:07:08;16.30;;;15.17;;
24259;SDS011;12384;48.112;18.418;2022-11-11T10:10:01;15.03;;;14.00;;
24259;SDS011;12384;48.112;18.418;2022-11-11T10:12:54;15.67;;;14.37;;
24259;SDS011;12384;48.112;18.418;2022-11-11T10:15:46;15.13;;;14.03;;
24259;SDS011;12384;48.112;18.418;2022-11-11T10:18:44;15.77;;;14.67;;
24259;SDS011;12384;48.112;18.418;2022-11-11T10:21:40;14.90;;;13.90;;
24259;SDS011;12384;48.112;18.418;2022-11-11T10:24:58;14.70;;;13.60;;
24259;SDS011;12384;48.112;18.418;2022-11-11T10:27:54;15.47;;;14.37;;
24259;SDS011;12384;48.112;18.418;2022-11-11T10:30:42;14.90;;;13.80;;
24259;SDS011;12384;48.112;18.418;2022-11-11T10:33:32;15.47;;;14.33;;
24259;SDS011;12384;48.112;18.418;2022-11-11T10:36:25;14.97;;;13.77;;
24259;SDS011;12384;48.112;18.418;2022-11-11T10:39:23;15.17;;;13.87;;
24259;SDS011;12384;48.112;18.418;2022-11-11T10:42:18;14.77;;;13.67;;
24259;SDS011;12384;48.112;18.418;2022-11-11T10:45:07;14.20;;;13.10;;
24259;SDS011;12384;48.112;18.418;2022-11-11T10:48:00;14.03;;;12.93;;
24259;SDS011;12384;48.112;18.418;2022-11-11T10:50:52;14.13;;;12.97;;
24259;SDS011;12384;48.112;18.418;2022-11-11T10:53:43;14.13;;;13.03;;
24259;SDS011;12384;48.112;18.418;2022-11-11T10:56:40;14.57;;;13.27;;
24259;SDS011;12384;48.112;18.418;2022-11-11T10:59:33;14.23;;;13.23;;
24259;SDS011;12384;48.112;18.418;2022-11-11T11:02:27;15.30;;;14.13;;
24259;SDS011;12384;48.112;18.418;2022-11-11T11:05:21;14.77;;;13.67;;
24259;SDS011;12384;48.112;18.418;2022-11-11T11:08:13;14.60;;;13.50;;
24259;SDS011;12384;48.112;18.418;2022-11-11T11:11:06;16.93;;;15.53;;
24259;SDS011;12384;48.112;18.418;2022-11-11T11:13:57;18.13;;;16.73;;
24259;SDS011;12384;48.112;18.418;2022-11-11T11:16:48;17.33;;;16.03;;
24259;SDS011;12384;48.112;18.418;2022-11-11T11:19:41;17.57;;;16.17;;
24259;SDS011;12384;48.112;18.418;2022-11-11T11:22:34;20.50;;;18.80;;
24259;SDS011;12384;48.112;18.418;2022-11-11T11:25:31;19.33;;;17.83;;
24259;SDS011;12384;48.112;18.418;2022-11-11T11:28:18;20.10;;;18.40;;
24259;SDS011;12384;48.112;18.418;2022-11-11T11:31:06;18.73;;;17.03;;
24259;SDS011;12384;48.112;18.418;2022-11-11T11:33:55;19.53;;;17.83;;
24259;SDS011;12384;48.112;18.418;2022-11-11T11:36:43;23.13;;;20.93;;
24259;SDS011;12384;48.112;18.418;2022-11-11T11:39:33;26.33;;;23.60;;
24259;SDS011;12384;48.112;18.418;2022-11-11T11:42:26;28.33;;;25.33;;
24259;SDS011;12384;48.112;18.418;2022-11-11T11:45:21;27.07;;;23.63;;
24259;SDS011;12384;48.112;18.418;2022-11-11T11:48:13;26.67;;;23.93;;
24259;SDS011;12384;48.112;18.418;2022-11-11T11:51:21;24.73;;;22.00;;
24259;SDS011;12384;48.112;18.418;2022-11-11T11:54:30;21.50;;;19.30;;
24259;SDS011;12384;48.112;18.418;2022-11-11T11:57:40;20.43;;;18.53;;
24259;SDS011;12384;48.112;18.418;2022-11-11T12:00:37;19.20;;;17.40;;
24259;SDS011;12384;48.112;18.418;2022-11-11T12:03:37;18.93;;;17.43;;
24259;SDS011;12384;48.112;18.418;2022-11-11T12:06:46;19.13;;;17.33;;
24259;SDS011;12384;48.112;18.418;2022-11-11T12:09:44;20.63;;;18.80;;
24259;SDS011;12384;48.112;18.418;2022-11-11T12:12:42;19.77;;;18.07;;
24259;SDS011;12384;48.112;18.418;2022-11-11T12:15:37;18.00;;;16.53;;
24259;SDS011;12384;48.112;18.418;2022-11-11T12:18:42;19.03;;;17.43;;
24259;SDS011;12384;48.112;18.418;2022-11-11T12:21:40;19.37;;;17.77;;
24259;SDS011;12384;48.112;18.418;2022-11-11T12:24:42;20.40;;;18.50;;
24259;SDS011;12384;48.112;18.418;2022-11-11T12:27:36;20.50;;;18.83;;
24259;SDS011;12384;48.112;18.418;2022-11-11T12:30:30;20.33;;;18.63;;
24259;SDS011;12384;48.112;18.418;2022-11-11T12:33:33;21.00;;;19.13;;
24259;SDS011;12384;48.112;18.418;2022-11-11T12:36:35;20.10;;;18.03;;
24259;SDS011;12384;48.112;18.418;2022-11-11T12:39:37;18.93;;;17.23;;
24259;SDS011;12384;48.112;18.418;2022-11-11T12:42:49;18.87;;;17.27;;
24259;SDS011;12384;48.112;18.418;2022-11-11T12:45:45;18.87;;;17.37;;
24259;SDS011;12384;48.112;18.418;2022-11-11T12:48:37;16.80;;;15.40;;
24259;SDS011;12384;48.112;18.418;2022-11-11T12:51:36;15.37;;;14.27;;
24259;SDS011;12384;48.112;18.418;2022-11-11T12:54:38;15.27;;;14.07;;
24259;SDS011;12384;48.112;18.418;2022-11-11T12:57:34;14.20;;;13.07;;
24259;SDS011;12384;48.112;18.418;2022-11-11T13:00:31;15.13;;;13.93;;
24259;SDS011;12384;48.112;18.418;2022-11-11T13:03:31;14.20;;;13.10;;
24259;SDS011;12384;48.112;18.418;2022-11-11T13:06:42;13.63;;;12.52;;
24259;SDS011;12384;48.112;18.418;2022-11-11T13:09:45;14.95;;;13.82;;
24259;SDS011;12384;48.112;18.418;2022-11-11T13:12:48;14.90;;;13.73;;
24259;SDS011;12384;48.112;18.418;2022-11-11T13:15:43;15.20;;;14.07;;
24259;SDS011;12384;48.112;18.418;2022-11-11T13:18:34;14.30;;;13.13;;
24259;SDS011;12384;48.112;18.418;2022-11-11T13:21:31;13.63;;;12.63;;
24259;SDS011;12384;48.112;18.418;2022-11-11T13:24:27;14.23;;;13.13;;
24259;SDS011;12384;48.112;18.418;2022-11-11T13:27:18;13.80;;;12.80;;
24259;SDS011;12384;48.112;18.418;2022-11-11T13:30:25;14.85;;;13.70;;
24259;SDS011;12384;48.112;18.418;2022-11-11T13:33:25;15.13;;;13.93;;
24259;SDS011;12384;48.112;18.418;2022-11-11T13:36:22;14.50;;;13.40;;
24259;SDS011;12384;48.112;18.418;2022-11-11T13:39:22;14.87;;;13.63;;
24259;SDS011;12384;48.112;18.418;2022-11-11T13:42:12;14.27;;;13.15;;
24259;SDS011;12384;48.112;18.418;2022-11-11T13:45:17;14.03;;;13.03;;
24259;SDS011;12384;48.112;18.418;2022-11-11T13:48:15;13.55;;;12.65;;
24259;SDS011;12384;48.112;18.418;2022-11-11T13:51:11;14.20;;;13.02;;
24259;SDS011;12384;48.112;18.418;2022-11-11T13:54:19;13.93;;;12.93;;
24259;SDS011;12384;48.112;18.418;2022-11-11T13:57:14;13.82;;;12.82;;
24259;SDS011;12384;48.112;18.418;2022-11-11T14:00:22;15.23;;;14.13;;
24259;SDS011;12384;48.112;18.418;2022-11-11T14:06:48;16.87;;;15.57;;
24259;SDS011;12384;48.112;18.418;2022-11-11T14:09:53;16.60;;;15.37;;
24259;SDS011;12384;48.112;18.418;2022-11-11T14:12:42;16.63;;;15.43;;
24259;SDS011;12384;48.112;18.418;2022-11-11T14:15:39;17.43;;;16.17;;
24259;SDS011;12384;48.112;18.418;2022-11-11T14:18:37;17.93;;;16.63;;
24259;SDS011;12384;48.112;18.418;2022-11-11T14:21:42;19.30;;;17.80;;
24259;SDS011;12384;48.112;18.418;2022-11-11T14:24:43;20.67;;;19.07;;
24259;SDS011;12384;48.112;18.418;2022-11-11T14:27:31;20.40;;;18.70;;
24259;SDS011;12384;48.112;18.418;2022-11-11T14:30:28;23.03;;;21.27;;
24259;SDS011;12384;48.112;18.418;2022-11-11T14:33:28;22.70;;;21.00;;
24259;SDS011;12384;48.112;18.418;2022-11-11T14:36:28;21.67;;;20.07;;
24259;SDS011;12384;48.112;18.418;2022-11-11T14:39:35;23.67;;;21.80;;
24259;SDS011;12384;48.112;18.418;2022-11-11T14:42:42;23.40;;;21.70;;
24259;SDS011;12384;48.112;18.418;2022-11-11T14:48:53;23.50;;;21.77;;
24259;SDS011;12384;48.112;18.418;2022-11-11T14:51:45;24.23;;;22.50;;
24259;SDS011;12384;48.112;18.418;2022-11-11T14:57:47;24.67;;;22.87;;
24259;SDS011;12384;48.112;18.418;2022-11-11T15:00:42;25.20;;;23.30;;
24259;SDS011;12384;48.112;18.418;2022-11-11T15:03:32;24.17;;;22.30;;
24259;SDS011;12384;48.112;18.418;2022-11-11T15:06:25;25.77;;;23.67;;
24259;SDS011;12384;48.112;18.418;2022-11-11T15:09:22;26.93;;;24.83;;
24259;SDS011;12384;48.112;18.418;2022-11-11T15:12:24;26.13;;;24.23;;
24259;SDS011;12384;48.112;18.418;2022-11-11T15:15:22;24.93;;;23.13;;
24259;SDS011;12384;48.112;18.418;2022-11-11T15:18:15;25.87;;;24.03;;
24259;SDS011;12384;48.112;18.418;2022-11-11T15:21:16;25.63;;;23.63;;
24259;SDS011;12384;48.112;18.418;2022-11-11T15:24:19;24.30;;;22.40;;
24259;SDS011;12384;48.112;18.418;2022-11-11T15:27:20;24.83;;;22.70;;
24259;SDS011;12384;48.112;18.418;2022-11-11T15:30:17;24.03;;;22.23;;
24259;SDS011;12384;48.112;18.418;2022-11-11T15:33:08;24.40;;;22.40;;
24259;SDS011;12384;48.112;18.418;2022-11-11T15:36:00;23.90;;;22.20;;
24259;SDS011;12384;48.112;18.418;2022-11-11T15:38:55;24.00;;;22.17;;
24259;SDS011;12384;48.112;18.418;2022-11-11T15:41:46;25.70;;;23.70;;
24259;SDS011;12384;48.112;18.418;2022-11-11T15:44:35;27.23;;;24.77;;
24259;SDS011;12384;48.112;18.418;2022-11-11T15:47:22;26.07;;;23.87;;
24259;SDS011;12384;48.112;18.418;2022-11-11T15:50:15;25.83;;;23.73;;
24259;SDS011;12384;48.112;18.418;2022-11-11T15:53:03;26.50;;;24.30;;
24259;SDS011;12384;48.112;18.418;2022-11-11T15:55:52;25.37;;;23.33;;
24259;SDS011;12384;48.112;18.418;2022-11-11T15:58:42;25.80;;;23.77;;
24259;SDS011;12384;48.112;18.418;2022-11-11T16:01:29;24.60;;;22.60;;
24259;SDS011;12384;48.112;18.418;2022-11-11T16:04:17;25.20;;;23.20;;
24259;SDS011;12384;48.112;18.418;2022-11-11T16:07:29;24.33;;;22.43;;
24259;SDS011;12384;48.112;18.418;2022-11-11T16:10:20;24.47;;;22.50;;
24259;SDS011;12384;48.112;18.418;2022-11-11T16:13:14;23.40;;;21.50;;
24259;SDS011;12384;48.112;18.418;2022-11-11T16:16:08;24.83;;;22.87;;
24259;SDS011;12384;48.112;18.418;2022-11-11T16:18:58;25.67;;;23.60;;
24259;SDS011;12384;48.112;18.418;2022-11-11T16:21:49;24.07;;;22.27;;
24259;SDS011;12384;48.112;18.418;2022-11-11T16:24:42;24.20;;;22.17;;
24259;SDS011;12384;48.112;18.418;2022-11-11T16:27:30;23.10;;;21.30;;
24259;SDS011;12384;48.112;18.418;2022-11-11T16:30:27;24.57;;;22.67;;
24259;SDS011;12384;48.112;18.418;2022-11-11T16:33:19;25.27;;;23.03;;
24259;SDS011;12384;48.112;18.418;2022-11-11T16:36:18;25.40;;;23.20;;
24259;SDS011;12384;48.112;18.418;2022-11-11T16:39:12;24.03;;;22.03;;
24259;SDS011;12384;48.112;18.418;2022-11-11T16:42:00;24.77;;;22.67;;
24259;SDS011;12384;48.112;18.418;2022-11-11T16:44:49;28.60;;;26.03;;
24259;SDS011;12384;48.112;18.418;2022-11-11T16:50:50;28.70;;;26.10;;